Time;durP1;ratioP1;P1;durP2;ratioP2;P2;SDS_P1;SDS_P2;PMS_P1;PMS_P2;Temp;Humidity;BMP_temperature;BMP_pressure;BME280_temperature;BME280_humidity;BME280_pressure;Samples;Min_cycle;Max_cycle;Signal;HPM_P1;HPM_P2
2022/09/18 00:00:11;;;;;;;;;;;12.30;97.00;12.60;99879.00;;;;340236;28;90217;-90
2022/09/18 00:00:23;;;;;;;;;;;12.30;97.00;12.60;99883.00;;;;340453;28;83386;-90
2022/09/18 00:00:37;;;;;;;;;;;12.30;97.00;12.70;99883.00;;;;340238;28;91438;-90
2022/09/18 00:00:49;;;;;;;;;;;12.30;97.00;12.60;99887.00;;;;346295;28;83297;-90
2022/09/18 00:01:32;;;;;;;;;;;12.30;97.10;12.70;99881.00;;;;339945;28;92616;-90
2022/09/18 00:01:44;;;;;;;;;;;12.30;97.10;12.70;99888.00;;;;338971;28;83402;-90
2022/09/18 00:01:56;;;;;;;;;;;12.30;97.00;12.60;99880.00;;;;340113;28;91618;-90
2022/09/18 00:02:08;;;;;;;;;;;12.30;97.00;12.60;99882.00;;;;340566;28;82560;-90
2022/09/18 00:02:20;;;;;;;;;;;12.30;97.00;12.50;99884.00;;;;338838;28;91621;-90
2022/09/18 00:02:31;;;;;;;;;;;12.30;96.90;12.60;99877.00;;;;339236;28;83460;-90
2022/09/18 00:02:43;;;;;;;;;;;12.30;96.90;12.60;99882.00;;;;340011;28;90448;-90
2022/09/18 00:02:55;;;;;;;;;;;12.30;97.00;12.60;99879.00;;;;340621;28;83409;-90
2022/09/18 00:03:07;;;;;;;;;;;12.30;97.10;12.70;99891.00;;;;340236;28;89422;-90
2022/09/18 00:03:19;;;;;;;;;;;12.30;97.00;12.60;99883.00;;;;339162;28;83440;-90
2022/09/18 00:03:30;;;;;;;;;;;12.30;97.00;12.60;99879.00;;;;342703;28;92493;-90
2022/09/18 00:03:42;;;;;;;;;;;12.30;97.00;12.60;99873.00;;;;346259;28;82521;-90
2022/09/18 00:03:56;;;;;;;;;;;12.30;97.00;12.70;99882.00;;;;338827;28;91495;-90
2022/09/18 00:04:10;;;;;;;;;;;12.30;97.00;12.60;99886.00;;;;346190;28;83497;-90
2022/09/18 00:04:21;;;;;;;;;;;12.30;97.00;12.70;99881.00;;;;338791;28;91444;-90
2022/09/18 00:04:33;;;;;;;;;;;12.30;97.10;12.70;99879.00;;;;347619;28;83450;-90
2022/09/18 00:04:45;;;;;;;;;;;12.30;97.10;12.60;99873.00;;;;338616;28;90952;-90
2022/09/18 00:04:57;;;;;;;;;;;12.30;97.00;12.70;99881.00;;;;339254;28;83396;-90
2022/09/18 00:05:09;;;;;;;;;;;12.30;97.00;12.70;99879.00;;;;348645;27;90478;-91
2022/09/18 00:05:21;;;;;;;;;;;12.30;97.10;12.70;99885.00;;;;339215;28;82503;-90
2022/09/18 00:05:34;;;;;;;;;;;12.30;97.00;12.70;99882.00;;;;347093;28;92118;-90
2022/09/18 00:05:46;;;;;;;;;;;12.30;97.10;12.60;99882.00;;;;339295;28;83244;-90
2022/09/18 00:06:05;;;;;;;;;;;12.30;97.00;12.70;99877.00;;;;337414;28;90824;-90
2022/09/18 00:06:19;;;;;;;;;;;12.30;97.00;12.70;99878.00;;;;339153;28;83430;-90
2022/09/18 00:06:33;;;;;;;;;;;12.30;97.10;12.70;99882.00;;;;345786;28;90841;-90
2022/09/18 00:06:45;;;;;;;;;;;12.40;97.20;12.60;99883.00;;;;346178;28;83558;-90
2022/09/18 00:06:56;;;;;;;;;;;12.30;97.10;12.60;99877.00;;;;338823;28;91480;-90
2022/09/18 00:07:08;;;;;;;;;;;12.30;97.10;12.60;99887.00;;;;337903;28;83390;-90
2022/09/18 00:07:20;;;;;;;;;;;12.30;97.10;12.60;99882.00;;;;345459;28;91675;-90
2022/09/18 00:07:32;;;;;;;;;;;12.30;97.10;12.60;99878.00;;;;339124;28;83619;-90
2022/09/18 00:07:43;;;;;;;;;;;12.30;97.10;12.70;99881.00;;;;338741;28;92825;-90
2022/09/18 00:07:55;;;;;;;;;;;12.30;97.10;12.60;99881.00;;;;341962;28;83338;-90
2022/09/18 00:08:07;;;;;;;;;;;12.40;97.20;12.50;99877.00;;;;341240;28;91713;-89
2022/09/18 00:08:19;;;;;;;;;;;12.30;97.00;12.60;99875.00;;;;347532;28;82587;-90
2022/09/18 00:08:30;;;;;;;;;;;12.30;97.00;12.60;99872.00;;;;340144;28;91678;-90
2022/09/18 00:08:42;;;;;;;;;;;12.30;97.10;12.70;99880.00;;;;339169;28;83416;-90
2022/09/18 00:08:56;;;;;;;;;;;12.30;97.30;12.70;99867.00;;;;340274;28;89035;-91
2022/09/18 00:09:10;;;;;;;;;;;12.30;97.30;12.60;99872.00;;;;339247;28;83469;-90
2022/09/18 00:09:22;;;;;;;;;;;12.30;97.20;12.60;99881.00;;;;338702;28;91304;-90
2022/09/18 00:09:34;;;;;;;;;;;12.30;97.20;12.60;99875.00;;;;340560;28;82437;-90
2022/09/18 00:09:46;;;;;;;;;;;12.30;97.20;12.70;99872.00;;;;340088;28;92082;-90
2022/09/18 00:09:57;;;;;;;;;;;12.30;97.20;12.60;99878.00;;;;337967;28;82476;-90
2022/09/18 00:10:09;;;;;;;;;;;12.30;97.10;12.60;99869.00;;;;341379;28;91540;-90
2022/09/18 00:10:21;;;;;;;;;;;12.30;97.10;12.60;99873.00;;;;339092;28;82436;-90
2022/09/18 00:10:38;;;;;;;;;;;12.30;97.10;12.60;99874.00;;;;338877;28;88968;-90
2022/09/18 00:10:50;;;;;;;;;;;12.30;97.10;12.70;99874.00;;;;342038;28;82401;-90
2022/09/18 00:11:06;;;;;;;;;;;12.30;97.10;12.60;99878.00;;;;341515;28;89088;-90
2022/09/18 00:11:21;;;;;;;;;;;12.30;97.10;12.60;99872.00;;;;337945;28;82573;-90
2022/09/18 00:11:38;;;;;;;;;;;12.30;97.10;12.60;99881.00;;;;345456;28;91876;-90
2022/09/18 00:11:50;;;;;;;;;;;12.30;97.00;12.60;99878.00;;;;344904;28;82456;-90
2022/09/18 00:12:01;;;;;;;;;;;12.30;97.20;12.60;99881.00;;;;345686;28;92761;-90
2022/09/18 00:12:13;;;;;;;;;;;12.30;97.20;12.60;99877.00;;;;346360;28;82453;-90
2022/09/18 00:12:25;;;;;;;;;;;12.30;97.10;12.60;99867.00;;;;346823;28;91330;-90
2022/09/18 00:12:37;;;;;;;;;;;12.30;97.10;12.60;99883.00;;;;348984;27;83404;-90
2022/09/18 00:12:48;;;;;;;;;;;12.30;97.20;12.60;99881.00;;;;347342;28;88792;-90
2022/09/18 00:13:00;;;;;;;;;;;12.30;97.20;12.60;99878.00;;;;347613;28;83448;-90
2022/09/18 00:13:13;;;;;;;;;;;12.30;97.20;12.60;99875.00;;;;347227;28;91470;-90
2022/09/18 00:13:24;;;;;;;;;;;12.30;97.20;12.70;99884.00;;;;347431;27;82591;-90
2022/09/18 00:13:37;;;;;;;;;;;12.30;97.10;12.60;99881.00;;;;345779;28;92458;-90
2022/09/18 00:13:48;;;;;;;;;;;12.30;97.00;12.50;99877.00;;;;347777;28;83269;-90
2022/09/18 00:14:00;;;;;;;;;;;12.30;97.00;12.60;99872.00;;;;347219;28;88920;-90
2022/09/18 00:14:14;;;;;;;;;;;12.30;97.00;12.60;99875.00;;;;347531;28;83587;-89
2022/09/18 00:14:26;;;;;;;;;;;12.30;96.90;12.60;99871.00;;;;347068;28;90178;-90
2022/09/18 00:14:38;;;;;;;;;;;12.30;96.90;12.60;99871.00;;;;346142;28;83414;-90
2022/09/18 00:14:50;;;;;;;;;;;12.30;96.90;12.50;99877.00;;;;347129;28;91713;-90
2022/09/18 00:15:02;;;;;;;;;;;12.30;97.00;12.60;99870.00;;;;346262;28;82569;-90
2022/09/18 00:15:13;;;;;;;;;;;12.30;97.00;12.60;99877.00;;;;344471;28;90171;-90
2022/09/18 00:15:25;;;;;;;;;;;12.20;96.90;12.60;99870.00;;;;346123;28;82473;-90
2022/09/18 00:15:37;;;;;;;;;;;12.30;96.90;12.60;99871.00;;;;347171;28;90649;-90
2022/09/18 00:15:55;;;;;;;;;;;12.30;96.90;12.60;99877.00;;;;346259;28;83487;-90
2022/09/18 00:16:08;;;;;;;;;;;12.30;96.90;12.60;99877.00;;;;345646;28;92382;-90
2022/09/18 00:16:21;;;;;;;;;;;12.20;96.90;12.60;99872.00;;;;347322;28;82571;-90
2022/09/18 00:16:33;;;;;;;;;;;12.30;96.90;12.60;99873.00;;;;344189;28;91778;-90
2022/09/18 00:16:45;;;;;;;;;;;12.30;96.90;12.60;99880.00;;;;347470;28;83375;-90
2022/09/18 00:16:56;;;;;;;;;;;12.30;96.90;12.50;99885.00;;;;350092;27;89065;-90
2022/09/18 00:17:08;;;;;;;;;;;12.20;96.90;12.60;99879.00;;;;347574;28;83531;-90
2022/09/18 00:17:20;;;;;;;;;;;12.20;96.90;12.60;99878.00;;;;347115;28;91462;-90
2022/09/18 00:17:32;;;;;;;;;;;12.20;97.00;12.60;99877.00;;;;349067;27;83469;-90
2022/09/18 00:17:44;;;;;;;;;;;12.30;97.00;12.60;99876.00;;;;348582;27;91675;-90
2022/09/18 00:17:55;;;;;;;;;;;12.20;96.90;12.60;99876.00;;;;346312;28;82540;-90
2022/09/18 00:18:07;;;;;;;;;;;12.20;97.00;12.60;99873.00;;;;344320;28;92214;-90
2022/09/18 00:18:19;;;;;;;;;;;12.30;97.00;12.60;99870.00;;;;346254;28;82444;-90
2022/09/18 00:18:31;;;;;;;;;;;12.20;96.90;12.60;99873.00;;;;344475;28;91536;-90
2022/09/18 00:18:42;;;;;;;;;;;12.30;96.90;12.60;99877.00;;;;344685;28;83585;-90
2022/09/18 00:18:55;;;;;;;;;;;12.30;96.80;12.60;99875.00;;;;345493;28;90820;-90
2022/09/18 00:19:07;;;;;;;;;;;12.20;96.80;12.60;99878.00;;;;346266;28;83400;-90
2022/09/18 00:19:19;;;;;;;;;;;12.30;96.90;12.60;99884.00;;;;347170;28;91465;-90
2022/09/18 00:19:30;;;;;;;;;;;12.30;96.80;12.60;99876.00;;;;344838;28;83554;-90
2022/09/18 00:19:42;;;;;;;;;;;12.30;96.90;12.60;99874.00;;;;345799;28;91444;-90
2022/09/18 00:19:54;;;;;;;;;;;12.30;96.90;12.50;99874.00;;;;349126;27;83386;-90
2022/09/18 00:20:06;;;;;;;;;;;12.20;96.90;12.60;99878.00;;;;347051;27;90119;-90
2022/09/18 00:20:19;;;;;;;;;;;12.20;96.90;12.60;99877.00;;;;347645;28;83437;-90
2022/09/18 00:20:33;;;;;;;;;;;12.20;96.90;12.50;99869.00;;;;345701;28;91013;-90
2022/09/18 00:20:45;;;;;;;;;;;12.20;96.70;12.60;99878.00;;;;346011;28;83519;-90
2022/09/18 00:21:04;;;;;;;;;;;12.20;96.70;12.60;99887.00;;;;347191;28;90956;-90
2022/09/18 00:21:18;;;;;;;;;;;12.20;96.90;12.60;99867.00;;;;346299;28;82596;-89
2022/09/18 00:21:30;;;;;;;;;;;12.20;96.90;12.50;99878.00;;;;347132;28;91193;-90
2022/09/18 00:21:44;;;;;;;;;;;12.20;96.80;12.50;99884.00;;;;346241;28;83391;-90
2022/09/18 00:21:56;;;;;;;;;;;12.20;96.80;12.50;99871.00;;;;346967;28;90442;-90
2022/09/18 00:22:07;;;;;;;;;;;12.20;96.80;12.50;99878.00;;;;347581;27;83476;-89
2022/09/18 00:22:19;;;;;;;;;;;12.20;96.90;12.50;99876.00;;;;347104;28;92369;-90
2022/09/18 00:22:31;;;;;;;;;;;12.20;96.90;12.50;99874.00;;;;347557;28;82648;-90
2022/09/18 00:22:43;;;;;;;;;;;12.20;96.80;12.50;99874.00;;;;345797;28;89365;-90
2022/09/18 00:22:55;;;;;;;;;;;12.20;96.90;12.60;99886.00;;;;346319;28;83385;-90
2022/09/18 00:23:06;;;;;;;;;;;12.20;96.90;12.60;99876.00;;;;347223;28;91336;-90
2022/09/18 00:23:18;;;;;;;;;;;12.20;96.90;12.60;99875.00;;;;347451;28;83531;-90
2022/09/18 00:23:30;;;;;;;;;;;12.20;96.90;12.60;99873.00;;;;344365;28;90317;-90
2022/09/18 00:23:42;;;;;;;;;;;12.20;97.00;12.60;99877.00;;;;348990;27;83421;-90
2022/09/18 00:23:55;;;;;;;;;;;12.20;97.00;12.60;99869.00;;;;348367;27;91491;-89
2022/09/18 00:24:06;;;;;;;;;;;12.20;97.00;12.50;99877.00;;;;346236;28;83454;-90
2022/09/18 00:24:18;;;;;;;;;;;12.20;97.10;12.50;99871.00;;;;347116;28;92239;-90
2022/09/18 00:24:30;;;;;;;;;;;12.20;97.30;12.50;99874.00;;;;346239;28;83317;-90
2022/09/18 00:24:42;;;;;;;;;;;12.20;97.20;12.50;99879.00;;;;347143;27;91162;-90
2022/09/18 00:24:54;;;;;;;;;;;12.20;97.20;12.60;99869.00;;;;347652;28;83592;-90
2022/09/18 00:25:07;;;;;;;;;;;12.20;97.20;12.60;99870.00;;;;345813;28;90366;-90
2022/09/18 00:25:19;;;;;;;;;;;12.20;97.20;12.60;99869.00;;;;345953;28;83725;-90
2022/09/18 00:25:31;;;;;;;;;;;12.20;97.20;12.60;99873.00;;;;347233;28;88690;-90
2022/09/18 00:25:42;;;;;;;;;;;12.20;97.10;12.60;99878.00;;;;350425;27;83418;-90
2022/09/18 00:25:54;;;;;;;;;;;12.20;97.10;12.60;99869.00;;;;347225;28;91580;-90
2022/09/18 00:26:06;;;;;;;;;;;12.20;97.00;12.60;99873.00;;;;348968;27;83450;-90
2022/09/18 00:26:18;;;;;;;;;;;12.20;96.90;12.60;99873.00;;;;347103;28;92573;-90
2022/09/18 00:26:30;;;;;;;;;;;12.20;96.90;12.60;99868.00;;;;346238;28;83448;-90
2022/09/18 00:26:42;;;;;;;;;;;12.20;96.90;12.50;99870.00;;;;349591;27;90654;-90
2022/09/18 00:26:54;;;;;;;;;;;12.20;97.00;12.50;99858.00;;;;349185;27;82473;-90
2022/09/18 00:27:06;;;;;;;;;;;12.20;97.00;12.50;99870.00;;;;347189;28;90847;-90
2022/09/18 00:27:17;;;;;;;;;;;12.20;96.90;12.40;99869.00;;;;347457;28;83533;-90
2022/09/18 00:27:29;;;;;;;;;;;12.20;96.90;12.50;99874.00;;;;348266;27;89704;-90
2022/09/18 00:27:41;;;;;;;;;;;12.20;96.90;12.40;99871.00;;;;347261;28;83445;-90
2022/09/18 00:27:53;;;;;;;;;;;12.20;97.00;12.40;99866.00;;;;347225;28;90210;-90
2022/09/18 00:28:05;;;;;;;;;;;12.20;97.10;12.40;99859.00;;;;347414;27;83580;-90
2022/09/18 00:28:16;;;;;;;;;;;12.20;97.10;12.50;99866.00;;;;345641;28;92475;-90
2022/09/18 00:28:28;;;;;;;;;;;12.20;97.10;12.40;99865.00;;;;344686;28;82604;-90
2022/09/18 00:28:41;;;;;;;;;;;12.20;97.10;12.50;99868.00;;;;348546;27;90819;-90
2022/09/18 00:28:53;;;;;;;;;;;12.20;97.10;12.50;99871.00;;;;347349;28;82661;-90
2022/09/18 00:29:05;;;;;;;;;;;12.10;96.90;12.50;99864.00;;;;345766;28;90573;-90
2022/09/18 00:29:16;;;;;;;;;;;12.20;97.00;12.50;99865.00;;;;347611;28;83383;-90
2022/09/18 00:29:28;;;;;;;;;;;12.20;97.00;12.50;99873.00;;;;347075;28;91184;-90
2022/09/18 00:29:40;;;;;;;;;;;12.20;97.00;12.50;99865.00;;;;347587;28;82547;-90
2022/09/18 00:29:52;;;;;;;;;;;12.10;97.10;12.50;99871.00;;;;345835;28;91534;-90
2022/09/18 00:30:04;;;;;;;;;;;12.20;97.10;12.50;99860.00;;;;346081;28;83531;-90
2022/09/18 00:30:16;;;;;;;;;;;12.20;97.10;12.50;99866.00;;;;344178;28;92477;-90
2022/09/18 00:30:27;;;;;;;;;;;12.20;97.00;12.50;99859.00;;;;346111;28;83986;-90
2022/09/18 00:30:39;;;;;;;;;;;12.20;97.00;12.50;99867.00;;;;347303;28;89881;-90
2022/09/18 00:30:52;;;;;;;;;;;12.20;97.00;12.50;99867.00;;;;348962;27;83478;-90
2022/09/18 00:31:05;;;;;;;;;;;12.20;97.00;12.50;99860.00;;;;345859;28;91058;-90
2022/09/18 00:31:19;;;;;;;;;;;12.20;97.10;12.50;99867.00;;;;347559;28;82533;-90
2022/09/18 00:31:32;;;;;;;;;;;12.20;97.10;12.40;99865.00;;;;349988;27;91436;-90
2022/09/18 00:31:44;;;;;;;;;;;12.20;97.00;12.50;99869.00;;;;347617;28;82521;-90
2022/09/18 00:31:58;;;;;;;;;;;12.10;97.00;12.50;99869.00;;;;347146;28;91445;-91
2022/09/18 00:32:10;;;;;;;;;;;12.20;97.00;12.50;99868.00;;;;349060;27;82505;-90
2022/09/18 00:32:22;;;;;;;;;;;12.20;97.00;12.50;99867.00;;;;349820;27;92052;-90
2022/09/18 00:32:34;;;;;;;;;;;12.10;97.00;12.50;99868.00;;;;350428;27;83402;-89
2022/09/18 00:32:45;;;;;;;;;;;12.20;97.10;12.50;99871.00;;;;347150;28;91497;-90
2022/09/18 00:32:57;;;;;;;;;;;12.20;97.10;12.50;99868.00;;;;346229;28;83544;-90
2022/09/18 00:33:09;;;;;;;;;;;12.20;97.00;12.50;99869.00;;;;344466;28;91239;-90
2022/09/18 00:33:20;;;;;;;;;;;12.20;97.00;12.40;99861.00;;;;346131;28;82509;-90
2022/09/18 00:33:32;;;;;;;;;;;12.20;97.10;12.50;99864.00;;;;344409;28;91672;-90
2022/09/18 00:33:44;;;;;;;;;;;12.20;97.20;12.60;99866.00;;;;345958;28;83506;-90
2022/09/18 00:33:57;;;;;;;;;;;12.20;97.20;12.60;99870.00;;;;345553;28;91417;-90
2022/09/18 00:34:10;;;;;;;;;;;12.20;97.20;12.50;99865.00;;;;346166;28;83565;-90
2022/09/18 00:34:22;;;;;;;;;;;12.20;97.20;12.50;99870.00;;;;345755;28;88868;-90
2022/09/18 00:34:34;;;;;;;;;;;12.20;97.10;12.50;99865.00;;;;346241;28;82475;-90
2022/09/18 00:34:46;;;;;;;;;;;12.20;97.10;12.50;99874.00;;;;345694;28;91609;-90
2022/09/18 00:34:58;;;;;;;;;;;12.20;97.10;12.50;99865.00;;;;346164;28;83406;-90
2022/09/18 00:35:09;;;;;;;;;;;12.20;97.00;12.50;99874.00;;;;345806;28;91321;-90
2022/09/18 00:35:21;;;;;;;;;;;12.20;97.00;12.40;99869.00;;;;347552;28;82517;-90
2022/09/18 00:35:33;;;;;;;;;;;12.20;97.00;12.40;99859.00;;;;346937;28;91246;-90
2022/09/18 00:35:44;;;;;;;;;;;12.10;97.00;12.40;99871.00;;;;349012;27;83397;-90
2022/09/18 00:35:59;;;;;;;;;;;12.10;97.00;12.40;99862.00;;;;347229;28;87537;-90
2022/09/18 00:36:13;;;;;;;;;;;12.10;97.00;12.50;99866.00;;;;346188;28;82529;-90
2022/09/18 00:36:25;;;;;;;;;;;12.10;97.10;12.50;99873.00;;;;347023;28;93088;-90
2022/09/18 00:36:38;;;;;;;;;;;12.10;97.10;12.50;99865.00;;;;347550;28;82586;-90
2022/09/18 00:36:49;;;;;;;;;;;12.20;97.20;12.50;99865.00;;;;347034;28;90944;-90
2022/09/18 00:37:01;;;;;;;;;;;12.10;97.10;12.50;99872.00;;;;345796;28;83510;-90
2022/09/18 00:37:13;;;;;;;;;;;12.20;97.10;12.50;99872.00;;;;344459;28;90920;-90
2022/09/18 00:37:24;;;;;;;;;;;12.20;97.00;12.50;99872.00;;;;346035;28;83529;-90
2022/09/18 00:37:36;;;;;;;;;;;12.10;97.00;12.40;99871.00;;;;348525;27;92382;-90
2022/09/18 00:37:48;;;;;;;;;;;12.20;97.00;12.40;99871.00;;;;346281;28;83373;-90
2022/09/18 00:38:00;;;;;;;;;;;12.20;97.00;12.40;99868.00;;;;345709;28;89779;-90
2022/09/18 00:38:12;;;;;;;;;;;12.20;97.00;12.50;99864.00;;;;346246;28;83482;-90
2022/09/18 00:38:23;;;;;;;;;;;12.20;97.10;12.30;99865.00;;;;346977;28;91875;-90
2022/09/18 00:38:35;;;;;;;;;;;12.10;97.20;12.40;99870.00;;;;346231;28;83454;-90
2022/09/18 00:38:47;;;;;;;;;;;12.10;97.20;12.30;99869.00;;;;345725;28;91914;-90
2022/09/18 00:38:59;;;;;;;;;;;12.10;97.10;12.40;99872.00;;;;346151;28;82632;-90
2022/09/18 00:39:11;;;;;;;;;;;12.10;97.10;12.30;99865.00;;;;345790;28;90974;-90
2022/09/18 00:39:23;;;;;;;;;;;12.10;96.90;12.30;99864.00;;;;347560;28;82516;-90
2022/09/18 00:39:35;;;;;;;;;;;12.10;96.90;12.40;99859.00;;;;345841;28;90803;-90
2022/09/18 00:39:46;;;;;;;;;;;12.10;96.90;12.50;99864.00;;;;346143;28;82514;-90
2022/09/18 00:39:58;;;;;;;;;;;12.10;97.00;12.40;99858.00;;;;345361;28;91163;-90
2022/09/18 00:40:10;;;;;;;;;;;12.10;97.00;12.50;99872.00;;;;347331;28;82506;-90
2022/09/18 00:40:22;;;;;;;;;;;12.10;97.00;12.40;99876.00;;;;347020;28;91367;-90
2022/09/18 00:40:33;;;;;;;;;;;12.10;96.90;12.40;99862.00;;;;347566;28;83473;-90
2022/09/18 00:40:45;;;;;;;;;;;12.10;96.90;12.40;99863.00;;;;347182;28;91469;-90
2022/09/18 00:40:58;;;;;;;;;;;12.10;96.90;12.40;99867.00;;;;349033;27;83343;-90
2022/09/18 00:41:22;;;;;;;;;;;12.10;97.00;12.40;99868.00;;;;345745;28;92072;-90
2022/09/18 00:41:36;;;;;;;;;;;12.10;97.10;12.40;99871.00;;;;348876;27;83465;-90
2022/09/18 00:41:48;;;;;;;;;;;12.10;97.00;12.40;99870.00;;;;347096;28;90311;-90
2022/09/18 00:42:00;;;;;;;;;;;12.10;97.10;12.50;99870.00;;;;345991;28;82600;-90
2022/09/18 00:42:12;;;;;;;;;;;12.10;97.10;12.50;99860.00;;;;347187;27;92319;-90
2022/09/18 00:42:23;;;;;;;;;;;12.10;97.10;12.50;99862.00;;;;347517;28;82617;-90
2022/09/18 00:42:35;;;;;;;;;;;12.10;97.10;12.50;99869.00;;;;347109;28;91432;-90
2022/09/18 00:42:47;;;;;;;;;;;12.10;97.10;12.50;99863.00;;;;344918;28;83338;-90
2022/09/18 00:43:24;;;;;;;;;;;12.10;97.10;12.40;99871.00;;;;344401;28;90373;-90
2022/09/18 00:43:36;;;;;;;;;;;12.10;97.00;12.50;99853.00;;;;347611;28;83558;-90
2022/09/18 00:43:52;;;;;;;;;;;12.10;97.20;12.40;99858.00;;;;347161;28;91916;-90
2022/09/18 00:44:29;;;;;;;;;;;12.10;97.10;12.40;99863.00;;;;347461;28;83483;-90
2022/09/18 00:44:43;;;;;;;;;;;12.10;97.20;12.50;99861.00;;;;346873;27;91801;-90
2022/09/18 00:44:55;;;;;;;;;;;12.10;97.10;12.50;99865.00;;;;346284;28;82584;-90
2022/09/18 00:45:09;;;;;;;;;;;12.10;97.10;12.40;99864.00;;;;347205;28;89116;-90
2022/09/18 00:45:21;;;;;;;;;;;12.10;97.00;12.40;99865.00;;;;346195;28;83494;-89
2022/09/18 00:45:32;;;;;;;;;;;12.10;97.00;12.40;99860.00;;;;344301;28;92448;-90
2022/09/18 00:45:46;;;;;;;;;;;12.10;97.00;12.40;99867.00;;;;346202;28;83493;-90
2022/09/18 00:46:00;;;;;;;;;;;12.10;97.10;12.40;99864.00;;;;345825;28;89866;-90
2022/09/18 00:46:20;;;;;;;;;;;12.10;97.00;12.40;99865.00;;;;347596;28;82515;-90
2022/09/18 00:46:33;;;;;;;;;;;12.10;97.00;12.50;99865.00;;;;347042;28;90315;-90
2022/09/18 00:46:44;;;;;;;;;;;12.10;97.10;12.50;99862.00;;;;347545;28;83445;-90
2022/09/18 00:47:02;;;;;;;;;;;12.10;97.10;12.50;99865.00;;;;344443;28;90132;-90
2022/09/18 00:47:23;;;;;;;;;;;12.10;97.10;12.50;99861.00;;;;346164;28;83513;-90
2022/09/18 00:47:41;;;;;;;;;;;12.10;97.00;12.50;99859.00;;;;344350;28;92647;-90
2022/09/18 00:47:52;;;;;;;;;;;12.20;97.10;12.50;99868.00;;;;346269;28;83433;-90
2022/09/18 00:48:04;;;;;;;;;;;12.10;96.90;12.40;99859.00;;;;345546;28;92554;-90
2022/09/18 00:48:17;;;;;;;;;;;12.10;96.90;12.40;99864.00;;;;346137;28;82512;-90
2022/09/18 00:48:56;;;;;;;;;;;12.10;97.00;12.40;99866.00;;;;348559;27;91563;-90
2022/09/18 00:49:21;;;;;;;;;;;12.10;97.00;12.40;99871.00;;;;343394;28;82578;-90
2022/09/18 00:49:32;;;;;;;;;;;12.10;97.20;12.40;99864.00;;;;346976;28;91921;-90
2022/09/18 00:49:49;;;;;;;;;;;12.10;97.10;12.30;99866.00;;;;347339;28;83522;-89
2022/09/18 00:50:08;;;;;;;;;;;12.10;97.10;12.40;99863.00;;;;349605;27;90197;-90
2022/09/18 00:50:24;;;;;;;;;;;12.10;97.10;12.40;99867.00;;;;349028;27;83488;-90
2022/09/18 00:50:35;;;;;;;;;;;12.10;97.20;12.40;99860.00;;;;345740;28;90351;-90
2022/09/18 00:50:47;;;;;;;;;;;12.10;97.20;12.50;99861.00;;;;347554;27;83500;-91
2022/09/18 00:50:59;;;;;;;;;;;12.10;97.20;12.50;99863.00;;;;347089;28;91555;-90
2022/09/18 00:51:12;;;;;;;;;;;12.10;97.20;12.40;99857.00;;;;346162;28;83436;-89
2022/09/18 00:51:24;;;;;;;;;;;12.10;97.10;12.40;99862.00;;;;345560;28;90929;-90
2022/09/18 00:51:36;;;;;;;;;;;12.10;97.00;12.40;99859.00;;;;347638;28;82486;-90
2022/09/18 00:51:49;;;;;;;;;;;12.10;97.00;12.40;99859.00;;;;347289;28;91518;-90
2022/09/18 00:52:01;;;;;;;;;;;12.10;97.10;12.40;99861.00;;;;348735;27;82569;-90
2022/09/18 00:52:13;;;;;;;;;;;12.10;97.00;12.40;99865.00;;;;347075;28;91745;-90
2022/09/18 00:52:27;;;;;;;;;;;12.10;97.00;12.40;99862.00;;;;346133;28;82552;-90
2022/09/18 00:52:55;;;;;;;;;;;12.10;97.00;12.40;99875.00;;;;347086;28;91368;-90
2022/09/18 00:53:07;;;;;;;;;;;12.10;97.00;12.40;99855.00;;;;347588;28;83429;-90
2022/09/18 00:53:19;;;;;;;;;;;12.10;96.90;12.50;99865.00;;;;347039;28;93259;-90
2022/09/18 00:53:30;;;;;;;;;;;12.10;97.00;12.50;99862.00;;;;346129;28;83487;-90
2022/09/18 00:53:59;;;;;;;;;;;12.10;97.00;12.50;99869.00;;;;347162;28;91056;-90
2022/09/18 00:54:16;;;;;;;;;;;12.10;97.00;12.40;99868.00;;;;344618;28;82551;-90
2022/09/18 00:54:39;;;;;;;;;;;12.10;97.00;12.40;99865.00;;;;347064;28;92019;-89
2022/09/18 00:54:53;;;;;;;;;;;12.10;96.90;12.40;99864.00;;;;349030;27;83465;-90
2022/09/18 00:55:09;;;;;;;;;;;12.10;97.00;12.30;99871.00;;;;348569;27;90302;-90
2022/09/18 00:55:27;;;;;;;;;;;12.10;96.90;12.20;99861.00;;;;346046;28;83530;-90
2022/09/18 00:55:39;;;;;;;;;;;12.10;96.80;12.30;99864.00;;;;344307;28;90368;-90
2022/09/18 00:55:51;;;;;;;;;;;12.00;96.90;12.40;99861.00;;;;346220;28;83291;-90
2022/09/18 00:56:03;;;;;;;;;;;12.00;97.00;12.30;99863.00;;;;346883;28;90399;-90
2022/09/18 00:56:15;;;;;;;;;;;12.00;96.90;12.40;99867.00;;;;348963;27;83571;-90
2022/09/18 00:56:27;;;;;;;;;;;12.00;96.90;12.30;99868.00;;;;345774;28;91407;-90
2022/09/18 00:56:39;;;;;;;;;;;12.00;96.90;12.30;99868.00;;;;344799;28;82511;-90
2022/09/18 00:56:52;;;;;;;;;;;12.00;96.80;12.30;99872.00;;;;347202;28;91389;-90
2022/09/18 00:57:07;;;;;;;;;;;12.00;96.80;12.40;99863.00;;;;347523;28;83487;-90
2022/09/18 00:57:22;;;;;;;;;;;12.00;96.90;12.40;99864.00;;;;348523;27;91967;-90
2022/09/18 00:57:35;;;;;;;;;;;12.00;96.90;12.40;99858.00;;;;347645;28;83460;-90
2022/09/18 00:57:50;;;;;;;;;;;12.10;96.90;12.40;99868.00;;;;348595;27;91519;-90
2022/09/18 00:58:02;;;;;;;;;;;12.10;96.90;12.40;99861.00;;;;346179;28;82517;-90
2022/09/18 00:58:13;;;;;;;;;;;12.00;96.90;12.30;99872.00;;;;347146;27;89974;-89
2022/09/18 00:58:25;;;;;;;;;;;12.00;96.90;12.30;99864.00;;;;346241;28;82493;-90
2022/09/18 00:58:37;;;;;;;;;;;12.00;96.90;12.30;99869.00;;;;347205;28;89934;-89
2022/09/18 00:58:49;;;;;;;;;;;12.00;96.90;12.30;99863.00;;;;346167;28;83475;-90
2022/09/18 00:59:01;;;;;;;;;;;12.00;97.00;12.40;99861.00;;;;347179;28;91270;-90
2022/09/18 00:59:14;;;;;;;;;;;12.00;97.00;12.30;99868.00;;;;347541;28;83596;-90
2022/09/18 00:59:32;;;;;;;;;;;12.00;96.90;12.40;99860.00;;;;344323;28;90454;-90
2022/09/18 00:59:45;;;;;;;;;;;12.00;97.00;12.40;99862.00;;;;347552;28;83544;-90
2022/09/18 00:59:57;;;;;;;;;;;12.00;97.00;12.40;99863.00;;;;345827;28;90602;-90
2022/09/18 01:00:13;;;;;;;;;;;12.00;97.10;12.40;99860.00;;;;347603;28;83374;-90
2022/09/18 01:00:25;;;;;;;;;;;12.00;97.00;12.40;99856.00;;;;345506;28;92929;-90
2022/09/18 01:00:37;;;;;;;;;;;12.00;96.90;12.40;99867.00;;;;347656;28;83404;-90
2022/09/18 01:00:49;;;;;;;;;;;12.10;96.90;12.30;99863.00;;;;347175;28;89377;-90
2022/09/18 01:01:01;;;;;;;;;;;12.00;96.80;12.40;99864.00;;;;347595;28;82964;-90
2022/09/18 01:01:13;;;;;;;;;;;12.00;96.80;12.40;99859.00;;;;348609;27;91364;-90
2022/09/18 01:01:25;;;;;;;;;;;12.10;96.90;12.40;99857.00;;;;347470;28;83586;-90
2022/09/18 01:01:36;;;;;;;;;;;12.10;96.90;12.40;99864.00;;;;347194;28;92007;-90
2022/09/18 01:01:48;;;;;;;;;;;12.00;96.80;12.30;99849.00;;;;347661;28;83440;-90
2022/09/18 01:02:00;;;;;;;;;;;12.00;96.80;12.40;99869.00;;;;344420;28;87740;-90
2022/09/18 01:02:12;;;;;;;;;;;12.00;96.80;12.30;99869.00;;;;344835;28;82558;-90
2022/09/18 01:02:24;;;;;;;;;;;12.00;96.80;12.30;99868.00;;;;345724;28;92524;-90
2022/09/18 01:02:38;;;;;;;;;;;12.00;96.80;12.20;99850.00;;;;346056;28;83528;-90
2022/09/18 01:02:50;;;;;;;;;;;12.00;96.80;12.20;99870.00;;;;344351;28;91557;-90
2022/09/18 01:03:01;;;;;;;;;;;12.00;96.80;12.30;99869.00;;;;347608;28;83448;-90
2022/09/18 01:03:13;;;;;;;;;;;12.00;96.90;12.30;99864.00;;;;347231;28;91141;-90
2022/09/18 01:03:25;;;;;;;;;;;12.00;96.90;12.30;99867.00;;;;347470;28;82569;-90
2022/09/18 01:03:37;;;;;;;;;;;12.00;97.00;12.30;99862.00;;;;344503;28;90207;-90
2022/09/18 01:03:48;;;;;;;;;;;12.00;97.10;12.30;99868.00;;;;347344;28;83413;-90
2022/09/18 01:04:03;;;;;;;;;;;12.00;97.00;12.30;99866.00;;;;348371;27;91360;-90
2022/09/18 01:04:15;;;;;;;;;;;12.00;97.00;12.30;99863.00;;;;347526;28;82498;-90
2022/09/18 01:04:28;;;;;;;;;;;12.00;97.00;12.30;99867.00;;;;345701;28;92956;-90
2022/09/18 01:04:39;;;;;;;;;;;12.00;97.00;12.30;99868.00;;;;347574;27;82403;-90
2022/09/18 01:04:52;;;;;;;;;;;12.00;96.90;12.40;99872.00;;;;347205;28;89976;-90